createdAt,value
2022-08-17T00:01:52.031Z,6.68
2022-08-17T00:04:23.022Z,5.55
2022-08-17T00:06:50.967Z,8.77
2022-08-17T00:09:19.553Z,6.80
2022-08-17T00:12:34.727Z,6.47
2022-08-17T00:14:37.941Z,6.95
2022-08-17T00:17:07.052Z,6.80
2022-08-17T00:19:36.290Z,5.80
2022-08-17T00:22:31.567Z,6.43
2022-08-17T00:24:54.627Z,6.32
2022-08-17T00:27:22.517Z,5.50
2022-08-17T00:29:50.404Z,6.07
2022-08-17T00:33:14.143Z,5.63
2022-08-17T00:35:12.455Z,5.78
2022-08-17T00:37:40.325Z,5.60
2022-08-17T00:40:11.017Z,7.22
2022-08-17T00:42:39.417Z,5.60
2022-08-17T00:45:09.811Z,8.05
2022-08-17T00:47:37.691Z,6.40
2022-08-17T00:50:09.867Z,5.68
2022-08-17T00:52:44.472Z,6.90
2022-08-17T00:55:12.794Z,6.25
2022-08-17T00:57:46.147Z,5.53
2022-08-17T01:00:17.529Z,7.15
2022-08-17T01:02:48.047Z,5.28
2022-08-17T01:05:20.631Z,5.78
2022-08-17T01:07:50.759Z,5.72
2022-08-17T01:10:58.842Z,5.72
2022-08-17T01:13:12.168Z,5.68
2022-08-17T01:15:46.178Z,9.90
2022-08-17T01:18:17.960Z,5.20
2022-08-17T01:20:51.061Z,5.80
2022-08-17T01:23:23.446Z,6.10
2022-08-17T01:25:53.314Z,6.25
2022-08-17T01:28:52.598Z,6.18
2022-08-17T01:31:10.482Z,5.43
2022-08-17T01:33:38.385Z,7.43
2022-08-17T01:36:08.098Z,7.90
2022-08-17T01:38:38.135Z,8.90
2022-08-17T01:41:11.222Z,6.47
2022-08-17T01:43:43.554Z,5.78
2022-08-17T01:46:17.699Z,5.95
2022-08-17T01:48:47.464Z,5.88
2022-08-17T01:51:16.603Z,6.75
2022-08-17T01:53:49.083Z,8.38
2022-08-17T01:56:19.355Z,5.93
2022-08-17T01:58:47.916Z,8.45
2022-08-17T02:01:18.912Z,6.07
2022-08-17T02:03:59.488Z,6.10
2022-08-17T02:06:32.824Z,5.68
2022-08-17T02:09:16.876Z,6.40
2022-08-17T02:11:46.228Z,6.60
2022-08-17T02:14:14.931Z,7.35
2022-08-17T02:16:43.729Z,7.40
2022-08-17T02:19:16.994Z,7.78
2022-08-17T02:21:47.833Z,7.75
2022-08-17T02:24:58.990Z,6.93
2022-08-17T02:27:09.460Z,7.82
2022-08-17T02:29:37.297Z,7.88
2022-08-17T02:32:05.913Z,7.38
2022-08-17T02:34:34.144Z,7.57
2022-08-17T02:37:01.973Z,10.13
2022-08-17T02:39:31.446Z,7.32
2022-08-17T02:42:02.562Z,6.93
2022-08-17T02:44:39.379Z,7.03
2022-08-17T02:47:09.335Z,7.03
2022-08-17T02:49:37.305Z,6.55
2022-08-17T02:52:07.058Z,6.85
2022-08-17T02:54:39.693Z,7.55
2022-08-17T02:57:08.886Z,7.40
2022-08-17T02:59:36.700Z,6.90
2022-08-17T03:02:04.886Z,7.88
2022-08-17T03:04:35.156Z,7.45
2022-08-17T03:07:03.523Z,8.38
2022-08-17T03:09:31.347Z,7.72
2022-08-17T03:12:07.314Z,8.98
2022-08-17T03:14:41.474Z,9.38
2022-08-17T03:17:09.996Z,12.27
2022-08-17T03:19:42.900Z,10.98
2022-08-17T03:22:37.357Z,11.15
2022-08-17T03:24:59.690Z,12.25
2022-08-17T03:27:28.939Z,9.32
2022-08-17T03:29:56.678Z,8.30
2022-08-17T03:32:24.608Z,11.00
2022-08-17T03:34:52.474Z,8.05
2022-08-17T03:37:20.262Z,8.38
2022-08-17T03:39:48.131Z,6.10
2022-08-17T03:42:32.513Z,5.82
2022-08-17T03:45:05.606Z,5.13
2022-08-17T03:47:50.831Z,4.57
2022-08-17T03:50:37.548Z,8.85
2022-08-17T03:53:26.624Z,5.03
2022-08-17T03:56:12.105Z,6.90
2022-08-17T03:58:39.920Z,4.68
2022-08-17T04:01:09.574Z,4.80
2022-08-17T04:03:37.447Z,5.05
2022-08-17T04:06:08.208Z,5.45
2022-08-17T04:08:36.536Z,5.10
2022-08-17T04:11:04.337Z,5.65
2022-08-17T04:13:32.166Z,6.25
2022-08-17T04:15:59.978Z,5.35
2022-08-17T04:18:29.257Z,5.57
2022-08-17T04:20:57.130Z,5.05
2022-08-17T04:23:32.637Z,7.30
2022-08-17T04:26:00.886Z,5.68
2022-08-17T04:28:28.783Z,5.38
2022-08-17T04:30:56.639Z,5.72
2022-08-17T04:33:26.636Z,6.80
2022-08-17T04:35:58.320Z,8.05
2022-08-17T04:38:27.942Z,4.97
2022-08-17T04:41:14.295Z,6.43
2022-08-17T04:43:44.365Z,5.47
2022-08-17T04:46:15.580Z,5.03
2022-08-17T04:48:46.051Z,4.22
2022-08-17T04:51:21.699Z,4.88
2022-08-17T04:53:54.563Z,6.43
2022-08-17T04:56:25.896Z,4.53
2022-08-17T04:58:55.807Z,4.72
2022-08-17T05:01:26.587Z,4.95
2022-08-17T05:03:56.144Z,5.07
2022-08-17T05:06:25.620Z,5.88
2022-08-17T05:08:53.860Z,8.93
2022-08-17T05:11:22.054Z,5.25
2022-08-17T05:13:50.759Z,5.05
2022-08-17T05:16:19.735Z,6.38
2022-08-17T05:18:47.748Z,4.68
2022-08-17T05:21:16.158Z,4.72
2022-08-17T05:23:53.934Z,6.82
2022-08-17T05:26:26.877Z,5.25
2022-08-17T05:28:59.436Z,4.47
2022-08-17T05:31:29.726Z,5.68
2022-08-17T05:33:57.989Z,5.38
2022-08-17T05:36:43.230Z,4.82
2022-08-17T05:39:16.439Z,6.47
2022-08-17T05:41:46.980Z,7.20
2022-08-17T05:44:14.988Z,4.30
2022-08-17T05:46:48.565Z,4.72
2022-08-17T05:49:18.949Z,8.05
2022-08-17T05:52:08.563Z,5.00
2022-08-17T05:54:52.686Z,6.22
2022-08-17T05:57:53.850Z,6.10
2022-08-17T06:00:30.854Z,7.03
2022-08-17T06:03:34.140Z,4.90
2022-08-17T06:06:16.940Z,7.38
2022-08-17T06:08:51.494Z,5.93
2022-08-17T06:11:30.941Z,7.00
2022-08-17T06:14:32.731Z,7.97
2022-08-17T06:17:05.629Z,8.82
2022-08-17T06:19:40.979Z,5.07
2022-08-17T06:22:12.278Z,8.55
2022-08-17T06:24:43.795Z,6.03
2022-08-17T06:27:20.194Z,10.40
2022-08-17T06:29:54.382Z,6.90
2022-08-17T06:32:23.207Z,8.05
2022-08-17T06:34:51.097Z,4.65
2022-08-17T06:37:42.419Z,7.75
2022-08-17T06:40:37.039Z,4.32
2022-08-17T06:43:21.084Z,9.20
2022-08-17T06:45:54.904Z,6.90
2022-08-17T06:48:26.631Z,4.97
2022-08-17T06:51:00.084Z,4.95
2022-08-17T06:53:32.197Z,8.65
2022-08-17T06:56:06.218Z,5.55
2022-08-17T06:58:37.309Z,7.55
2022-08-17T07:01:11.712Z,4.75
2022-08-17T07:03:44.792Z,5.10
2022-08-17T07:06:15.999Z,5.38
2022-08-17T07:08:53.567Z,7.93
2022-08-17T07:11:28.206Z,6.07
2022-08-17T07:14:08.347Z,5.88
2022-08-17T07:16:42.148Z,8.70
2022-08-17T07:19:11.041Z,6.30
2022-08-17T07:21:47.033Z,7.10
2022-08-17T07:24:33.101Z,5.05
2022-08-17T07:27:10.638Z,6.75
2022-08-17T07:29:46.639Z,7.03
2022-08-17T07:32:18.477Z,7.90
2022-08-17T07:35:18.340Z,9.98
2022-08-17T07:37:53.044Z,6.93
2022-08-17T07:40:26.935Z,7.93
2022-08-17T07:43:24.029Z,5.68
2022-08-17T07:46:15.690Z,9.20
2022-08-17T07:48:49.646Z,9.15
2022-08-17T07:51:31.264Z,10.80
2022-08-17T07:54:13.978Z,8.80
2022-08-17T07:56:46.898Z,13.52
2022-08-17T07:59:23.858Z,11.40
2022-08-17T08:02:10.248Z,8.40
2022-08-17T08:07:34.642Z,9.52
2022-08-17T08:10:08.630Z,9.65
2022-08-17T08:12:39.112Z,9.70
2022-08-17T08:15:19.029Z,8.77
2022-08-17T08:17:52.264Z,10.25
2022-08-17T08:20:52.348Z,8.38
2022-08-17T08:23:26.513Z,9.88
2022-08-17T08:26:05.458Z,7.63
2022-08-17T08:28:43.409Z,9.35
2022-08-17T08:31:42.222Z,9.75
2022-08-17T08:34:47.988Z,9.38
2022-08-17T08:37:22.728Z,12.02
2022-08-17T08:40:08.257Z,9.15
2022-08-17T08:42:43.213Z,9.15
2022-08-17T08:45:18.036Z,10.00
2022-08-17T08:48:57.855Z,9.85
2022-08-17T08:51:01.907Z,9.57
2022-08-17T08:53:38.971Z,9.75
2022-08-17T08:56:13.195Z,17.42
2022-08-17T08:58:52.203Z,12.50
2022-08-17T09:01:28.770Z,10.75
2022-08-17T09:04:25.512Z,11.68
2022-08-17T09:07:06.018Z,10.85
2022-08-17T09:09:49.525Z,10.63
2022-08-17T09:12:26.875Z,12.02
2022-08-17T09:15:02.527Z,13.05
2022-08-17T09:17:40.742Z,9.85
2022-08-17T09:20:28.053Z,10.75
2022-08-17T09:23:03.921Z,9.98
2022-08-17T09:25:36.061Z,11.45
2022-08-17T09:28:07.726Z,10.30
2022-08-17T09:30:42.051Z,10.32
2022-08-17T09:33:12.582Z,10.88
2022-08-17T09:35:44.655Z,10.00
2022-08-17T09:38:22.673Z,10.25
2022-08-17T09:40:56.473Z,12.10
2022-08-17T09:43:32.813Z,11.85
2022-08-17T09:46:04.927Z,11.95
2022-08-17T09:48:38.129Z,11.43
2022-08-17T09:51:12.955Z,10.57
2022-08-17T09:53:44.699Z,11.25
2022-08-17T09:56:34.183Z,11.73
2022-08-17T09:59:28.468Z,11.48
2022-08-17T10:02:33.756Z,11.55
2022-08-17T10:05:06.699Z,13.48
2022-08-17T10:07:41.614Z,13.73
2022-08-17T10:10:16.855Z,14.88
2022-08-17T10:12:56.779Z,16.88
2022-08-17T10:15:46.861Z,14.63
2022-08-17T10:18:37.682Z,11.73
2022-08-17T10:21:25.940Z,11.75
2022-08-17T10:24:19.877Z,11.65
2022-08-17T10:26:56.881Z,12.20
2022-08-17T10:29:40.813Z,11.93
2022-08-17T10:32:25.626Z,12.20
2022-08-17T10:35:07.076Z,11.80
2022-08-17T10:37:47.492Z,12.18
2022-08-17T10:40:35.956Z,11.70
2022-08-17T10:43:29.253Z,12.45
2022-08-17T10:46:10.349Z,12.07
2022-08-17T10:49:33.921Z,12.90
2022-08-17T10:52:03.729Z,11.98
2022-08-17T10:54:49.767Z,13.10
2022-08-17T10:57:39.277Z,13.98
2022-08-17T11:00:15.453Z,12.52
2022-08-17T11:02:50.814Z,14.45
2022-08-17T11:05:43.447Z,12.70
2022-08-17T11:09:05.445Z,11.80
2022-08-17T11:11:47.410Z,12.18
2022-08-17T11:14:28.359Z,12.48
2022-08-17T11:17:15.900Z,13.77
2022-08-17T11:20:05.969Z,13.63
2022-08-17T11:22:53.012Z,13.00
2022-08-17T11:25:32.714Z,13.55
2022-08-17T11:28:08.694Z,14.20
2022-08-17T11:30:47.005Z,13.45
2022-08-17T11:33:53.455Z,13.50
2022-08-17T11:36:34.798Z,13.07
2022-08-17T11:39:20.228Z,16.10
2022-08-17T11:41:55.130Z,14.20
2022-08-17T11:44:37.540Z,13.73
2022-08-17T11:47:33.443Z,14.50
2022-08-17T11:50:43.153Z,15.55
2022-08-17T11:54:08.725Z,15.52
2022-08-17T11:56:47.135Z,15.57
2022-08-17T11:59:52.362Z,14.75
2022-08-17T12:02:38.733Z,15.15
2022-08-17T12:05:28.462Z,16.02
2022-08-17T12:08:07.986Z,16.60
2022-08-17T12:10:54.175Z,16.40
2022-08-17T12:13:23.700Z,15.15
2022-08-17T12:15:59.813Z,17.30
2022-08-17T12:18:30.060Z,16.98
2022-08-17T12:21:19.095Z,15.45
2022-08-17T12:23:57.017Z,15.02
2022-08-17T12:26:30.295Z,17.27
2022-08-17T12:29:01.964Z,19.73
2022-08-17T12:31:34.704Z,15.73
2022-08-17T12:34:03.856Z,17.00
2022-08-17T12:36:34.237Z,15.63
2022-08-17T12:39:14.201Z,19.52
2022-08-17T12:41:45.245Z,17.95
2022-08-17T12:44:16.463Z,18.63
2022-08-17T12:46:54.864Z,20.23
2022-08-17T12:49:31.044Z,17.27
2022-08-17T12:52:06.959Z,17.40
2022-08-17T12:54:41.650Z,16.92
2022-08-17T12:57:16.099Z,19.30
2022-08-17T12:59:47.091Z,18.52
2022-08-17T13:02:43.696Z,18.60
2022-08-17T13:05:21.131Z,20.02
2022-08-17T13:07:50.877Z,17.83
2022-08-17T13:10:22.600Z,18.88
2022-08-17T13:12:52.435Z,17.88
2022-08-17T13:15:29.612Z,18.05
2022-08-17T13:18:03.834Z,18.05
2022-08-17T13:20:33.190Z,18.45
2022-08-17T13:23:11.387Z,15.93
2022-08-17T13:25:40.178Z,13.95
2022-08-17T13:28:29.902Z,17.52
2022-08-17T13:31:25.067Z,15.95
2022-08-17T13:33:53.152Z,17.17
2022-08-17T13:36:30.020Z,15.68
2022-08-17T13:39:12.993Z,15.23
2022-08-17T13:41:41.057Z,17.08
2022-08-17T13:44:31.237Z,16.90
2022-08-17T13:47:00.611Z,17.67
2022-08-17T13:49:41.852Z,16.15
2022-08-17T13:52:38.028Z,17.52
2022-08-17T13:55:16.713Z,15.48
2022-08-17T13:57:47.700Z,16.65
2022-08-17T14:00:20.355Z,15.73
2022-08-17T14:02:48.183Z,16.73
2022-08-17T14:05:15.992Z,17.85
2022-08-17T14:07:46.983Z,15.25
2022-08-17T14:10:19.006Z,14.90
2022-08-17T14:12:57.141Z,15.30
2022-08-17T14:15:54.810Z,16.17
2022-08-17T14:18:55.231Z,18.13
2022-08-17T14:21:08.416Z,15.38
2022-08-17T14:23:36.666Z,14.18
2022-08-17T14:26:06.562Z,14.40
2022-08-17T14:28:36.492Z,18.08
2022-08-17T14:31:04.731Z,17.65
2022-08-17T14:33:32.551Z,16.58
2022-08-17T14:36:00.817Z,17.83
2022-08-17T14:38:28.660Z,17.38
2022-08-17T14:40:56.553Z,17.20
2022-08-17T14:43:27.153Z,16.63
2022-08-17T14:45:54.997Z,17.75
2022-08-17T14:48:22.961Z,16.92
2022-08-17T14:50:50.768Z,18.13
2022-08-17T14:53:20.293Z,15.77
2022-08-17T14:55:50.947Z,18.42
2022-08-17T14:58:19.921Z,15.98
2022-08-17T15:00:50.922Z,16.90
2022-08-17T15:03:19.426Z,19.08
2022-08-17T15:05:47.289Z,18.73
2022-08-17T15:08:16.222Z,19.38
2022-08-17T15:10:44.749Z,18.63
2022-08-17T15:13:20.652Z,18.52
2022-08-17T15:15:52.032Z,18.60
2022-08-17T15:18:22.836Z,20.45
2022-08-17T15:20:51.266Z,18.30
2022-08-17T15:23:21.664Z,17.48
2022-08-17T15:25:51.142Z,16.73
2022-08-17T15:28:23.000Z,17.38
2022-08-17T15:30:53.159Z,17.73
2022-08-17T15:33:29.198Z,15.63
2022-08-17T15:35:59.235Z,17.83
2022-08-17T15:38:28.039Z,16.90
2022-08-17T15:40:57.613Z,17.33
2022-08-17T15:43:32.411Z,18.30
2022-08-17T15:46:03.662Z,17.08
2022-08-17T15:48:42.049Z,15.80
2022-08-17T15:51:13.112Z,13.85
2022-08-17T15:53:42.120Z,13.63
2022-08-17T15:56:10.085Z,17.40
2022-08-17T15:58:40.110Z,16.23
2022-08-17T16:01:16.534Z,14.32
2022-08-17T16:04:03.936Z,15.25
2022-08-17T16:06:34.716Z,13.85
2022-08-17T16:09:02.637Z,16.55
2022-08-17T16:11:30.467Z,14.05
2022-08-17T16:13:58.228Z,13.68
2022-08-17T16:16:28.933Z,13.23
2022-08-17T16:18:58.461Z,12.73
2022-08-17T16:21:27.523Z,11.48
2022-08-17T16:23:58.452Z,12.25
2022-08-17T16:26:27.254Z,12.00
2022-08-17T16:28:55.461Z,15.32
2022-08-17T16:31:23.360Z,15.55
2022-08-17T16:34:16.162Z,14.05
2022-08-17T16:36:41.445Z,14.27
2022-08-17T16:39:23.815Z,14.55
2022-08-17T16:41:51.636Z,14.27
2022-08-17T16:44:22.268Z,15.57
2022-08-17T16:46:50.301Z,15.30
2022-08-17T16:49:36.025Z,15.45
2022-08-17T16:52:07.559Z,15.25
2022-08-17T16:54:36.298Z,15.00
2022-08-17T16:57:05.517Z,13.93
2022-08-17T16:59:42.184Z,15.40
2022-08-17T17:02:14.039Z,13.40
2022-08-17T17:04:49.218Z,15.23
2022-08-17T17:07:52.014Z,13.35
2022-08-17T17:10:23.674Z,13.82
2022-08-17T17:13:02.187Z,12.85
2022-08-17T17:15:46.160Z,12.68
2022-08-17T17:18:15.383Z,14.88
2022-08-17T17:20:50.702Z,13.68
2022-08-17T17:23:33.177Z,12.95
2022-08-17T17:26:09.436Z,12.00
2022-08-17T17:28:44.116Z,11.15
2022-08-17T17:31:15.722Z,12.70
2022-08-17T17:33:48.235Z,11.30
2022-08-17T17:36:25.149Z,13.07
2022-08-17T17:38:55.194Z,13.63
2022-08-17T17:41:29.202Z,12.93
2022-08-17T17:44:05.342Z,12.77
2022-08-17T17:46:39.370Z,11.10
2022-08-17T17:49:09.385Z,11.20
2022-08-17T17:52:06.606Z,10.90
2022-08-17T17:54:50.218Z,10.48
2022-08-17T17:57:25.595Z,9.98
2022-08-17T18:00:02.563Z,10.75
2022-08-17T18:02:55.651Z,9.93
2022-08-17T18:05:47.710Z,10.30
2022-08-17T18:08:32.058Z,10.13
2022-08-17T18:11:13.153Z,8.93
2022-08-17T18:13:55.718Z,9.70
2022-08-17T18:16:23.836Z,9.13
2022-08-17T18:18:53.660Z,9.50
2022-08-17T18:21:24.103Z,9.20
2022-08-17T18:24:00.850Z,8.82
2022-08-17T18:26:39.531Z,9.05
2022-08-17T18:29:22.261Z,9.05
2022-08-17T18:32:10.755Z,8.90
2022-08-17T18:34:47.394Z,8.85
2022-08-17T18:37:32.882Z,10.00
2022-08-17T18:40:24.728Z,10.25
2022-08-17T18:43:06.825Z,9.75
2022-08-17T18:45:39.580Z,9.88
2022-08-17T18:48:25.579Z,9.48
2022-08-17T18:51:00.850Z,9.10
2022-08-17T18:53:34.619Z,8.75
2022-08-17T18:56:25.899Z,12.50
2022-08-17T18:59:06.016Z,9.88
2022-08-17T19:01:54.662Z,10.02
2022-08-17T19:04:37.702Z,10.27
2022-08-17T19:07:13.379Z,9.25
2022-08-17T19:09:46.482Z,10.25
2022-08-17T19:12:27.411Z,10.18
2022-08-17T19:14:59.990Z,10.57
2022-08-17T19:17:36.435Z,9.90
2022-08-17T19:20:11.703Z,10.00
2022-08-17T19:23:08.248Z,11.77
2022-08-17T19:25:41.460Z,9.48
2022-08-17T19:28:22.280Z,9.35
2022-08-17T19:30:55.698Z,9.30
2022-08-17T19:33:23.966Z,9.15
2022-08-17T19:36:00.217Z,10.18
2022-08-17T19:38:40.920Z,10.50
2022-08-17T19:41:17.129Z,9.35
2022-08-17T19:44:11.182Z,9.57
2022-08-17T19:46:50.062Z,9.50
2022-08-17T19:49:33.385Z,9.00
2022-08-17T19:52:24.086Z,8.80
2022-08-17T19:54:58.848Z,9.20
2022-08-17T19:57:37.785Z,9.50
2022-08-17T20:00:11.994Z,8.45
2022-08-17T20:02:49.101Z,8.90
2022-08-17T20:05:22.381Z,8.77
2022-08-17T20:07:55.417Z,9.07
2022-08-17T20:10:32.272Z,9.02
2022-08-17T20:13:04.544Z,9.45
2022-08-17T20:15:37.722Z,8.25
2022-08-17T20:18:13.446Z,10.85
2022-08-17T20:20:48.333Z,8.95
2022-08-17T20:23:38.997Z,8.85
2022-08-17T20:26:18.943Z,8.13
2022-08-17T20:29:37.715Z,9.55
2022-08-17T20:32:20.092Z,8.82
2022-08-17T20:34:48.972Z,8.57
2022-08-17T20:37:32.045Z,9.00
2022-08-17T20:40:20.482Z,9.60
2022-08-17T20:42:48.613Z,8.82
2022-08-17T20:45:57.663Z,9.75
2022-08-17T20:48:37.863Z,9.85
2022-08-17T20:51:18.721Z,8.93
2022-08-17T20:54:35.405Z,9.57
2022-08-17T20:57:13.873Z,9.00
2022-08-17T21:00:16.470Z,9.48
2022-08-17T21:02:46.164Z,9.68
2022-08-17T21:05:59.786Z,10.05
2022-08-17T21:08:30.681Z,9.63
2022-08-17T21:11:00.087Z,9.48
2022-08-17T21:13:53.117Z,10.63
2022-08-17T21:16:33.703Z,10.63
2022-08-17T21:19:22.688Z,10.05
2022-08-17T21:22:06.314Z,10.32
2022-08-17T21:24:46.390Z,10.90
2022-08-17T21:27:30.112Z,10.70
2022-08-17T21:30:22.952Z,10.70
2022-08-17T21:33:26.762Z,11.00
2022-08-17T21:36:11.344Z,11.43
2022-08-17T21:38:51.546Z,10.80
2022-08-17T21:41:23.064Z,11.27
2022-08-17T21:43:54.823Z,10.73
2022-08-17T21:46:28.704Z,11.23
2022-08-17T21:49:03.031Z,10.98
2022-08-17T21:51:45.019Z,10.55
2022-08-17T21:54:26.988Z,10.82
2022-08-17T21:56:55.322Z,10.27
2022-08-17T21:59:28.401Z,10.63
2022-08-17T22:01:58.497Z,11.23
2022-08-17T22:04:30.651Z,10.68
2022-08-17T22:07:01.131Z,11.80
2022-08-17T22:09:32.986Z,11.07
2022-08-17T22:12:04.391Z,11.43
2022-08-17T22:14:53.044Z,11.48
2022-08-17T22:17:24.046Z,12.52
2022-08-17T22:19:54.647Z,12.05
2022-08-17T22:22:27.351Z,12.43
2022-08-17T22:24:58.083Z,14.57
2022-08-17T22:27:52.109Z,15.88
2022-08-17T22:30:28.515Z,14.93
2022-08-17T22:32:57.573Z,14.30
2022-08-17T22:35:41.503Z,14.68
2022-08-17T22:38:34.119Z,14.77
2022-08-17T22:41:36.583Z,13.95
2022-08-17T22:44:15.019Z,13.05
2022-08-17T22:46:54.404Z,13.73
2022-08-17T22:49:26.737Z,12.95
2022-08-17T22:52:03.644Z,13.00
2022-08-17T22:54:49.331Z,13.80
2022-08-17T22:57:52.370Z,14.05
2022-08-17T23:00:32.740Z,13.23
2022-08-17T23:03:13.284Z,13.02
2022-08-17T23:05:45.017Z,13.23
2022-08-17T23:08:13.635Z,13.50
2022-08-17T23:10:42.375Z,12.95
2022-08-17T23:13:13.292Z,13.85
2022-08-17T23:15:42.063Z,13.82
2022-08-17T23:18:09.898Z,14.10
2022-08-17T23:20:40.060Z,15.43
2022-08-17T23:23:09.011Z,14.27
2022-08-17T23:25:37.581Z,14.15
2022-08-17T23:28:08.222Z,15.25
2022-08-17T23:30:41.284Z,15.80
2022-08-17T23:33:16.760Z,16.75
2022-08-17T23:35:44.578Z,15.88
2022-08-17T23:38:14.196Z,15.13
2022-08-17T23:40:42.087Z,15.13
2022-08-17T23:43:17.650Z,15.40
2022-08-17T23:45:57.336Z,15.98
2022-08-17T23:48:35.291Z,16.77
2022-08-17T23:51:06.024Z,17.67
2022-08-17T23:53:36.668Z,16.40
2022-08-17T23:56:10.201Z,19.13
2022-08-17T23:58:39.420Z,18.52
